Terminal Aerodrome Forecast
Issued by NWS

Home | Current Version | Previous Version | Text Only | Print | Product List | Glossary On
Versions: 1 2 3 4 5 6 7 8 9 10 11 12 13 14
737
FTUS46 KLOX 080542
TAFPRB
TAF
KPRB 080542Z 0806/0906 VRB03KT P6SM SKC
     FM081300 VRB03KT 6SM BR SCT001
     FM081700 VRB03KT P6SM SKC
     FM082200 10008KT P6SM SKC
     FM090300 VRB05KT P6SM SKC=

USA.gov is the U.S. government's official web portal to all federal, state and local government web resources and services.